Naples, FL (34101)

5:14 PM EDT on July 25, 2016 (GMT -0400)
Flamingo Estates | | Change Station

Elev 23 ft 26.14 °N, 81.75 °W | Updated 33 seconds ago

Clear
Clear
78.3 °F
Feels Like 81 °F
N
0.0
Wind Variable Wind from ENE

Today
High -- | Low -- °F
--% Chance of Precip.
Yesterday
High -- | Low -- °F
Precip. -- in
Pressure 30.01 in
Visibility 10.0 miles
Clouds Clear
Heat Index 81 °F
Dew Point 76 °F
Humidity 94%
Rainfall 0.52 in
Snow Depth Not available.
6:49 AM 8:17 PM
Waning Gibbous, 62% visible
METAR KAPF 252053Z 05005KT 10SM CLR 26/24 A3001 RMK AO2 RAE03 SLP162 P0000 60035 T02610244 58006
Pressure 30.01 in
Visibility 10.0 miles
Clouds Clear
Heat Index 81 °F
Dew Point 76 °F
Humidity 94%
Rainfall 0.52 in
Snow Depth Not available.
6:49 AM 8:17 PM
Waning Gibbous, 62% visible
METAR KAPF 252053Z 05005KT 10SM CLR 26/24 A3001 RMK AO2 RAE03 SLP162 P0000 60035 T02610244 58006
Record highs are possible for parts of the Northeast Monday and Tuesday, as parts of the central U.S. take a little breather from the worst of summer's dog day heat.

Expansive high pressure in the upper atmosphere will focus on parts of the East and West this week, sending heat indices well into the triple digits from the Mid-Atlantic states into the South.

10-Day Weather Forecast

Almanac

Astronomy

Jul. 25, 2016 Rise Set
Actual Time
Civil Twilight
Nautical Twilight
Astronomical Twilight
Moon
Length of Visible Light
Length of Day
Tomorrow will be .
, % of the Moon is Illuminated

Today's Extremes

State Highs State Lows

Community

WunderPhotos

Upload Photos

1,927,423 photos uploaded!

WunderBlog® & News

Nearby

Air Quality

  Air Quality AQ Index Pollutant
Not available.

Snow Depth

Station Depth Elevation

Earthquake Activity

City Distance Mag. Time & Date
Minimum magnitude displayed is 2.5.

Coastal Water Temperatures

Place Temperature

Stations

Nearby Weather Stations

Station Location Temp. Windchill Dew Point Humidity Wind Precip. Elev Updated Type
                   

Watches & Warnings

There are currently no watches in effect.